BAW1440 EGLL-OERK
Flight info
| Callsign | BAW1440 |
|---|---|
| Flight time | N/A |
| Altitude | 37000 |
| Route | DET L6 DVR UL9 KONAN UL607 KOK DCT REMBA DCT LIRSU DCT BANUX DCT BABEG DCT KUMOM DCT NEMEK DCT MEDUX UM867 KOGAT DCT TALAS UM749 ELPIS/N0482F390 UM749 SKP DCT PAXIS L607 NABSI P557 OBRAN L321 REXUM M872 WEJ L604 GAS G662 KIA |
| Aircraft | A388/J-SADE2E3FGHIJ3J4J5M1RWXY/LB1D1 |
Departure
| Time | 2026-05-08 00:37 |
|---|---|
| Airport | London Heathrow Airport (EGLL) |
Arrival
| Time | N/A |
|---|---|
| Airport | King Khalid International Airport (OERK) |
| Time | Latitude | Longitude | Altitude | Speed | Heading |
|---|---|---|---|---|---|
| 2026-05-08 00:19 | 51.47397 | -0.46598 | 97 ft | 0 kts | 119° |
| 2026-05-08 00:21 | 51.47401 | -0.46612 | 95 ft | 3 kts | 119° |
| 2026-05-08 00:21 | 51.47410 | -0.46638 | 94 ft | 3 kts | 119° |
| 2026-05-08 00:21 | 51.47419 | -0.46664 | 95 ft | 3 kts | 119° |
| 2026-05-08 00:22 | 51.47428 | -0.46690 | 96 ft | 3 kts | 119° |
| 2026-05-08 00:22 | 51.47433 | -0.46703 | 95 ft | 1 kts | 119° |
| 2026-05-08 00:22 | 51.47436 | -0.46712 | 95 ft | 1 kts | 119° |
| 2026-05-08 00:22 | 51.47439 | -0.46722 | 94 ft | 1 kts | 119° |
| 2026-05-08 00:23 | 51.47442 | -0.46731 | 93 ft | 1 kts | 119° |
| 2026-05-08 00:23 | 51.47446 | -0.46740 | 96 ft | 1 kts | 119° |
| 2026-05-08 00:23 | 51.47449 | -0.46749 | 96 ft | 1 kts | 119° |
| 2026-05-08 00:23 | 51.47452 | -0.46758 | 95 ft | 1 kts | 119° |
| 2026-05-08 00:24 | 51.47453 | -0.46763 | 96 ft | 2 kts | 119° |
| 2026-05-08 00:24 | 51.47448 | -0.46749 | 96 ft | 2 kts | 138° |
| 2026-05-08 00:24 | 51.47439 | -0.46738 | 93 ft | 2 kts | 163° |
| 2026-05-08 00:24 | 51.47434 | -0.46736 | 95 ft | 0 kts | 174° |
| 2026-05-08 00:28 | 51.47417 | -0.46733 | 93 ft | 8 kts | 174° |
| 2026-05-08 00:28 | 51.47339 | -0.46724 | 92 ft | 12 kts | 179° |
| 2026-05-08 00:28 | 51.47284 | -0.46723 | 91 ft | 9 kts | 179° |
| 2026-05-08 00:28 | 51.47243 | -0.46740 | 94 ft | 2 kts | 252° |
| 2026-05-08 00:29 | 51.47232 | -0.46826 | 94 ft | 9 kts | 247° |
| 2026-05-08 00:29 | 51.47199 | -0.46860 | 94 ft | 8 kts | 185° |
| 2026-05-08 00:29 | 51.47123 | -0.46867 | 92 ft | 14 kts | 182° |
| 2026-05-08 00:29 | 51.47005 | -0.46868 | 94 ft | 20 kts | 180° |
| 2026-05-08 00:30 | 51.46893 | -0.46865 | 92 ft | 15 kts | 178° |
| 2026-05-08 00:30 | 51.46792 | -0.46862 | 98 ft | 13 kts | 180° |
| 2026-05-08 00:30 | 51.46719 | -0.46862 | 98 ft | 8 kts | 180° |
| 2026-05-08 00:30 | 51.46664 | -0.46916 | 98 ft | 12 kts | 261° |
| 2026-05-08 00:31 | 51.46657 | -0.47122 | 98 ft | 16 kts | 269° |
| 2026-05-08 00:31 | 51.46657 | -0.47179 | 97 ft | 8 kts | 269° |
| 2026-05-08 00:31 | 51.46656 | -0.47300 | 95 ft | 14 kts | 270° |
| 2026-05-08 00:31 | 51.46656 | -0.47472 | 93 ft | 17 kts | 269° |
| 2026-05-08 00:32 | 51.46655 | -0.47665 | 94 ft | 18 kts | 270° |
| 2026-05-08 00:32 | 51.46655 | -0.47819 | 95 ft | 11 kts | 270° |
| 2026-05-08 00:32 | 51.46654 | -0.47953 | 98 ft | 12 kts | 269° |
| 2026-05-08 00:32 | 51.46653 | -0.48091 | 97 ft | 12 kts | 269° |
| 2026-05-08 00:33 | 51.46652 | -0.48237 | 98 ft | 14 kts | 270° |
| 2026-05-08 00:33 | 51.46653 | -0.48402 | 99 ft | 15 kts | 270° |
| 2026-05-08 00:33 | 51.46653 | -0.48546 | 99 ft | 10 kts | 270° |
| 2026-05-08 00:33 | 51.46652 | -0.48655 | 98 ft | 10 kts | 270° |
| 2026-05-08 00:34 | 51.46624 | -0.48747 | 100 ft | 9 kts | 207° |
| 2026-05-08 00:34 | 51.46621 | -0.48749 | 100 ft | 0 kts | 206° |
| 2026-05-08 00:35 | 51.46621 | -0.48750 | 97 ft | 1 kts | 206° |
| 2026-05-08 00:35 | 51.46584 | -0.48775 | 98 ft | 10 kts | 199° |
| 2026-05-08 00:35 | 51.46525 | -0.48784 | 100 ft | 8 kts | 160° |
| 2026-05-08 00:35 | 51.46489 | -0.48733 | 100 ft | 7 kts | 118° |
| 2026-05-08 00:36 | 51.46478 | -0.48653 | 100 ft | 8 kts | 89° |
| 2026-05-08 00:36 | 51.46478 | -0.48647 | 100 ft | 0 kts | 89° |
| 2026-05-08 00:36 | 51.46479 | -0.48470 | 98 ft | 51 kts | 89° |
| 2026-05-08 00:36 | 51.46482 | -0.47544 | 95 ft | 118 kts | 90° |
| 2026-05-08 00:37 | 51.46485 | -0.45894 | 95 ft | 162 kts | 90° |
| 2026-05-08 00:37 | 51.46489 | -0.44366 | 400 ft | 163 kts | 90° |
| 2026-05-08 00:37 | 51.46503 | -0.42570 | 994 ft | 161 kts | 90° |
| 2026-05-08 00:38 | 51.45838 | -0.39205 | 1836 ft | 165 kts | 124° |
| 2026-05-08 00:38 | 51.45161 | -0.37637 | 2009 ft | 182 kts | 126° |
| 2026-05-08 00:38 | 51.44546 | -0.35705 | 2185 ft | 206 kts | 109° |
| 2026-05-08 00:38 | 51.44078 | -0.33442 | 2572 ft | 227 kts | 110° |
| 2026-05-08 00:39 | 51.43538 | -0.30942 | 3016 ft | 246 kts | 110° |
| 2026-05-08 00:39 | 51.42987 | -0.28304 | 3750 ft | 250 kts | 107° |
| 2026-05-08 00:39 | 51.42591 | -0.25560 | 4526 ft | 255 kts | 103° |
| 2026-05-08 00:39 | 51.42215 | -0.22758 | 5308 ft | 259 kts | 103° |
| 2026-05-08 00:40 | 51.41831 | -0.19936 | 5876 ft | 265 kts | 102° |
| 2026-05-08 00:40 | 51.41434 | -0.17035 | 6000 ft | 267 kts | 102° |
| 2026-05-08 00:40 | 51.41033 | -0.14121 | 6004 ft | 267 kts | 103° |
| 2026-05-08 00:40 | 51.40626 | -0.11218 | 6002 ft | 266 kts | 103° |
| 2026-05-08 00:41 | 51.40218 | -0.08326 | 6001 ft | 266 kts | 103° |
| 2026-05-08 00:41 | 51.39809 | -0.05439 | 6001 ft | 266 kts | 103° |
| 2026-05-08 00:41 | 51.39403 | -0.02578 | 6002 ft | 266 kts | 103° |
| 2026-05-08 00:41 | 51.38993 | 0.00312 | 5991 ft | 267 kts | 102° |
| 2026-05-08 00:42 | 51.38579 | 0.03223 | 5999 ft | 267 kts | 102° |
| 2026-05-08 00:42 | 51.38181 | 0.06024 | 6001 ft | 268 kts | 102° |
| 2026-05-08 00:42 | 51.37907 | 0.07947 | 6000 ft | 267 kts | 102° |
| 2026-05-08 00:42 | 51.37356 | 0.11794 | 6000 ft | 267 kts | 102° |
| 2026-05-08 00:43 | 51.36937 | 0.14689 | 6000 ft | 267 kts | 103° |
| 2026-05-08 00:43 | 51.36653 | 0.16649 | 6001 ft | 267 kts | 103° |
| 2026-05-08 00:43 | 51.36231 | 0.19552 | 6001 ft | 267 kts | 103° |
| 2026-05-08 00:43 | 51.35819 | 0.22416 | 6001 ft | 267 kts | 102° |
| 2026-05-08 00:44 | 51.35404 | 0.25312 | 6001 ft | 266 kts | 102° |
| 2026-05-08 00:44 | 51.34988 | 0.28212 | 6001 ft | 267 kts | 102° |
| 2026-05-08 00:44 | 51.34570 | 0.31116 | 6002 ft | 267 kts | 102° |
| 2026-05-08 00:44 | 51.34156 | 0.33983 | 6002 ft | 267 kts | 103° |
| 2026-05-08 00:45 | 51.33736 | 0.36887 | 6005 ft | 267 kts | 103° |
| 2026-05-08 00:45 | 51.33318 | 0.39775 | 6005 ft | 268 kts | 103° |
| 2026-05-08 00:45 | 51.32893 | 0.42699 | 6003 ft | 268 kts | 103° |
| 2026-05-08 00:45 | 51.32474 | 0.45576 | 5829 ft | 268 kts | 103° |
| 2026-05-08 00:46 | 51.32051 | 0.48476 | 5826 ft | 268 kts | 102° |
| 2026-05-08 00:46 | 51.31623 | 0.51397 | 5831 ft | 271 kts | 102° |
| 2026-05-08 00:46 | 51.31239 | 0.54022 | 5833 ft | 271 kts | 102° |
| 2026-05-08 00:46 | 51.30815 | 0.56923 | 5837 ft | 271 kts | 102° |
| 2026-05-08 00:47 | 51.30381 | 0.59860 | 5844 ft | 271 kts | 104° |
| 2026-05-08 00:47 | 51.29852 | 0.62773 | 5938 ft | 273 kts | 105° |
| 2026-05-08 00:47 | 51.29313 | 0.65697 | 6440 ft | 277 kts | 105° |
| 2026-05-08 00:47 | 51.28774 | 0.68651 | 7194 ft | 280 kts | 105° |
| 2026-05-08 00:48 | 51.28222 | 0.71684 | 7891 ft | 287 kts | 106° |
| 2026-05-08 00:48 | 51.27657 | 0.74774 | 8595 ft | 293 kts | 107° |
| 2026-05-08 00:48 | 51.27080 | 0.77925 | 9298 ft | 299 kts | 107° |
| 2026-05-08 00:48 | 51.26488 | 0.81146 | 10006 ft | 305 kts | 107° |
| 2026-05-08 00:49 | 51.25886 | 0.84407 | 10406 ft | 319 kts | 108° |
| 2026-05-08 00:49 | 51.25237 | 0.87917 | 10623 ft | 338 kts | 108° |
| 2026-05-08 00:49 | 51.24552 | 0.91615 | 10931 ft | 353 kts | 108° |
| 2026-05-08 00:49 | 51.23851 | 0.95402 | 11621 ft | 354 kts | 108° |
| 2026-05-08 00:50 | 51.23154 | 0.99163 | 12424 ft | 352 kts | 108° |
| 2026-05-08 00:50 | 51.22462 | 1.02893 | 12980 ft | 358 kts | 108° |
| 2026-05-08 00:50 | 51.21749 | 1.06723 | 13611 ft | 361 kts | 108° |
| 2026-05-08 00:50 | 51.21025 | 1.10600 | 14195 ft | 364 kts | 108° |
| 2026-05-08 00:51 | 51.20298 | 1.14484 | 14767 ft | 367 kts | 108° |
| 2026-05-08 00:51 | 51.19563 | 1.18403 | 15332 ft | 370 kts | 108° |
| 2026-05-08 00:51 | 51.18839 | 1.22258 | 15865 ft | 372 kts | 108° |
| 2026-05-08 00:51 | 51.18081 | 1.26281 | 16425 ft | 375 kts | 108° |
| 2026-05-08 00:52 | 51.17326 | 1.30284 | 16953 ft | 378 kts | 108° |
| 2026-05-08 00:52 | 51.16576 | 1.34333 | 17501 ft | 382 kts | 106° |
| 2026-05-08 00:52 | 51.16112 | 1.38515 | 18025 ft | 386 kts | 97° |
| 2026-05-08 00:52 | 51.15924 | 1.42813 | 18506 ft | 389 kts | 95° |
| 2026-05-08 00:53 | 51.15733 | 1.47089 | 18923 ft | 393 kts | 96° |
| 2026-05-08 00:53 | 51.15528 | 1.51444 | 19376 ft | 395 kts | 96° |
| 2026-05-08 00:53 | 51.15315 | 1.55831 | 19822 ft | 397 kts | 96° |
| 2026-05-08 00:53 | 51.15127 | 1.59668 | 20206 ft | 399 kts | 96° |
| 2026-05-08 00:54 | 51.14905 | 1.64160 | 20647 ft | 402 kts | 96° |
| 2026-05-08 00:54 | 51.14684 | 1.68611 | 21071 ft | 404 kts | 96° |
| 2026-05-08 00:54 | 51.14467 | 1.72964 | 21495 ft | 407 kts | 96° |
| 2026-05-08 00:54 | 51.14261 | 1.77046 | 21877 ft | 409 kts | 96° |
| 2026-05-08 00:55 | 51.14032 | 1.81576 | 22303 ft | 411 kts | 96° |
| 2026-05-08 00:55 | 51.13801 | 1.86095 | 22709 ft | 414 kts | 96° |
| 2026-05-08 00:55 | 51.13612 | 1.89776 | 23038 ft | 416 kts | 96° |
| 2026-05-08 00:55 | 51.13383 | 1.94190 | 23433 ft | 418 kts | 96° |
| 2026-05-08 00:56 | 51.13136 | 1.98928 | 23818 ft | 421 kts | 96° |
| 2026-05-08 00:56 | 51.12619 | 2.08709 | 24549 ft | 425 kts | 96° |
| 2026-05-08 00:56 | 51.12374 | 2.13299 | 24891 ft | 428 kts | 96° |
| 2026-05-08 00:57 | 51.12119 | 2.18020 | 25247 ft | 430 kts | 96° |
| 2026-05-08 00:57 | 51.11860 | 2.22786 | 25612 ft | 432 kts | 96° |
| 2026-05-08 00:57 | 51.11605 | 2.27447 | 25985 ft | 435 kts | 96° |
| 2026-05-08 00:57 | 51.11340 | 2.32267 | 26377 ft | 437 kts | 96° |
| 2026-05-08 00:58 | 51.11071 | 2.37104 | 26765 ft | 440 kts | 96° |
| 2026-05-08 00:58 | 51.10799 | 2.41966 | 27138 ft | 443 kts | 96° |
| 2026-05-08 00:58 | 51.10522 | 2.46869 | 27564 ft | 446 kts | 96° |
| 2026-05-08 00:58 | 51.10243 | 2.51798 | 27969 ft | 449 kts | 97° |
| 2026-05-08 00:59 | 51.09959 | 2.56760 | 28378 ft | 452 kts | 97° |
| 2026-05-08 00:59 | 51.09670 | 2.61751 | 28797 ft | 454 kts | 97° |
| 2026-05-08 00:59 | 51.09179 | 2.66655 | 29194 ft | 456 kts | 104° |
| 2026-05-08 00:59 | 51.08337 | 2.71522 | 29601 ft | 457 kts | 108° |
| 2026-05-08 01:00 | 51.07438 | 2.76394 | 30011 ft | 461 kts | 108° |
| 2026-05-08 01:00 | 51.06835 | 2.79709 | 30275 ft | 463 kts | 108° |
| 2026-05-08 01:00 | 51.05652 | 2.86245 | 30732 ft | 467 kts | 108° |
| 2026-05-08 01:00 | 51.04747 | 2.91230 | 31085 ft | 469 kts | 108° |
| 2026-05-08 01:01 | 51.03836 | 2.96230 | 31462 ft | 472 kts | 108° |
| 2026-05-08 01:01 | 51.02914 | 3.01272 | 31840 ft | 474 kts | 108° |
| 2026-05-08 01:01 | 51.01987 | 3.06321 | 32183 ft | 477 kts | 108° |
| 2026-05-08 01:01 | 51.01074 | 3.11282 | 32531 ft | 480 kts | 108° |
| 2026-05-08 01:02 | 51.00140 | 3.16339 | 32886 ft | 482 kts | 108° |
| 2026-05-08 01:02 | 50.99203 | 3.21403 | 33238 ft | 485 kts | 108° |
| 2026-05-08 01:02 | 50.98245 | 3.26560 | 33586 ft | 488 kts | 108° |
| 2026-05-08 01:02 | 50.97283 | 3.31727 | 33916 ft | 491 kts | 108° |
| 2026-05-08 01:03 | 50.96348 | 3.36735 | 34157 ft | 495 kts | 108° |
| 2026-05-08 01:03 | 50.95366 | 3.41980 | 34451 ft | 497 kts | 108° |
| 2026-05-08 01:03 | 50.94376 | 3.47254 | 34751 ft | 499 kts | 108° |
| 2026-05-08 01:03 | 50.93382 | 3.52539 | 35139 ft | 499 kts | 108° |
| 2026-05-08 01:04 | 50.92389 | 3.57801 | 35520 ft | 500 kts | 108° |
| 2026-05-08 01:04 | 50.91387 | 3.63092 | 35896 ft | 500 kts | 108° |
| 2026-05-08 01:04 | 50.90399 | 3.68300 | 36268 ft | 500 kts | 108° |
| 2026-05-08 01:04 | 50.89392 | 3.73588 | 36634 ft | 500 kts | 109° |
| 2026-05-08 01:05 | 50.88393 | 3.78820 | 36975 ft | 501 kts | 108° |
| 2026-05-08 01:05 | 50.87374 | 3.84142 | 37085 ft | 507 kts | 108° |
| 2026-05-08 01:05 | 50.86350 | 3.89471 | 37083 ft | 504 kts | 108° |
| 2026-05-08 01:06 | 50.84367 | 3.99760 | 37081 ft | 504 kts | 109° |
| 2026-05-08 01:06 | 50.82656 | 4.08595 | 37081 ft | 505 kts | 109° |
| 2026-05-08 01:07 | 50.80597 | 4.19165 | 37080 ft | 505 kts | 109° |
| 2026-05-08 01:07 | 50.78519 | 4.29782 | 37081 ft | 505 kts | 109° |
| 2026-05-08 01:08 | 50.76474 | 4.40168 | 37083 ft | 505 kts | 109° |
| 2026-05-08 01:08 | 50.74377 | 4.50761 | 37085 ft | 505 kts | 109° |
| 2026-05-08 01:09 | 50.72278 | 4.61303 | 37085 ft | 505 kts | 109° |
| 2026-05-08 01:09 | 50.70160 | 4.71886 | 37085 ft | 505 kts | 109° |
| 2026-05-08 01:10 | 50.68033 | 4.82457 | 37086 ft | 505 kts | 109° |
| 2026-05-08 01:10 | 50.65748 | 4.92898 | 37089 ft | 504 kts | 115° |